sensor_id;sensor_type;location;lat;lon;timestamp;temperature;humidity
40638;DHT22;26336;44.696;10.622;2023-04-06T00:02:35;7.20;71.60
40638;DHT22;26336;44.696;10.622;2023-04-06T00:05:39;7.30;71.00
40638;DHT22;26336;44.696;10.622;2023-04-06T00:08:43;7.20;71.40
40638;DHT22;26336;44.696;10.622;2023-04-06T00:11:48;7.00;70.70
40638;DHT22;26336;44.696;10.622;2023-04-06T00:14:52;7.00;71.00
40638;DHT22;26336;44.696;10.622;2023-04-06T00:17:56;7.00;71.00
40638;DHT22;26336;44.696;10.622;2023-04-06T00:21:00;7.00;71.00
40638;DHT22;26336;44.696;10.622;2023-04-06T00:24:04;6.90;70.20
40638;DHT22;26336;44.696;10.622;2023-04-06T00:27:08;7.00;71.50
40638;DHT22;26336;44.696;10.622;2023-04-06T00:30:12;7.00;71.60
40638;DHT22;26336;44.696;10.622;2023-04-06T00:33:15;7.00;71.00
40638;DHT22;26336;44.696;10.622;2023-04-06T00:36:19;7.00;71.20
40638;DHT22;26336;44.696;10.622;2023-04-06T00:39:23;7.00;70.70
40638;DHT22;26336;44.696;10.622;2023-04-06T00:42:27;6.80;70.90
40638;DHT22;26336;44.696;10.622;2023-04-06T00:45:32;6.80;71.20
40638;DHT22;26336;44.696;10.622;2023-04-06T00:48:36;6.40;72.70
40638;DHT22;26336;44.696;10.622;2023-04-06T00:51:40;6.50;73.50
40638;DHT22;26336;44.696;10.622;2023-04-06T00:54:44;6.60;73.60
40638;DHT22;26336;44.696;10.622;2023-04-06T00:57:49;6.60;72.70
40638;DHT22;26336;44.696;10.622;2023-04-06T01:00:54;6.50;71.80
40638;DHT22;26336;44.696;10.622;2023-04-06T01:04:00;6.60;72.30
40638;DHT22;26336;44.696;10.622;2023-04-06T01:07:07;6.70;72.90
40638;DHT22;26336;44.696;10.622;2023-04-06T01:10:26;6.80;73.20
40638;DHT22;26336;44.696;10.622;2023-04-06T01:13:37;6.80;72.90
40638;DHT22;26336;44.696;10.622;2023-04-06T01:16:44;6.80;73.40
40638;DHT22;26336;44.696;10.622;2023-04-06T01:19:52;6.70;73.40
40638;DHT22;26336;44.696;10.622;2023-04-06T01:23:03;6.60;72.90
40638;DHT22;26336;44.696;10.622;2023-04-06T01:26:07;6.60;72.60
40638;DHT22;26336;44.696;10.622;2023-04-06T01:29:12;6.50;73.10
40638;DHT22;26336;44.696;10.622;2023-04-06T01:32:16;6.50;73.30
40638;DHT22;26336;44.696;10.622;2023-04-06T01:35:26;6.60;74.40
40638;DHT22;26336;44.696;10.622;2023-04-06T01:38:39;6.60;75.90
40638;DHT22;26336;44.696;10.622;2023-04-06T01:41:43;6.60;75.00
40638;DHT22;26336;44.696;10.622;2023-04-06T01:44:48;6.60;74.50
40638;DHT22;26336;44.696;10.622;2023-04-06T01:47:53;6.60;74.20
40638;DHT22;26336;44.696;10.622;2023-04-06T01:51:00;6.60;74.70
40638;DHT22;26336;44.696;10.622;2023-04-06T01:54:08;6.60;74.50
40638;DHT22;26336;44.696;10.622;2023-04-06T01:57:38;6.50;75.00
40638;DHT22;26336;44.696;10.622;2023-04-06T02:00:49;6.50;75.50
40638;DHT22;26336;44.696;10.622;2023-04-06T02:03:54;6.40;75.20
40638;DHT22;26336;44.696;10.622;2023-04-06T02:06:59;6.40;75.30
40638;DHT22;26336;44.696;10.622;2023-04-06T02:10:10;6.40;76.10
40638;DHT22;26336;44.696;10.622;2023-04-06T02:13:15;6.40;74.90
40638;DHT22;26336;44.696;10.622;2023-04-06T02:16:24;6.40;74.90
40638;DHT22;26336;44.696;10.622;2023-04-06T02:19:28;6.40;75.20
40638;DHT22;26336;44.696;10.622;2023-04-06T02:22:32;6.40;75.50
40638;DHT22;26336;44.696;10.622;2023-04-06T02:25:36;6.40;75.60
40638;DHT22;26336;44.696;10.622;2023-04-06T02:28:41;6.30;75.20
40638;DHT22;26336;44.696;10.622;2023-04-06T02:31:45;6.30;76.00
40638;DHT22;26336;44.696;10.622;2023-04-06T02:34:49;6.30;76.30
40638;DHT22;26336;44.696;10.622;2023-04-06T02:37:55;6.30;76.30
40638;DHT22;26336;44.696;10.622;2023-04-06T02:40:59;6.20;75.80
40638;DHT22;26336;44.696;10.622;2023-04-06T02:44:06;6.20;76.90
40638;DHT22;26336;44.696;10.622;2023-04-06T02:47:22;6.10;76.50
40638;DHT22;26336;44.696;10.622;2023-04-06T02:50:28;6.00;76.80
40638;DHT22;26336;44.696;10.622;2023-04-06T02:53:37;6.00;77.60
40638;DHT22;26336;44.696;10.622;2023-04-06T02:56:41;6.00;77.80
40638;DHT22;26336;44.696;10.622;2023-04-06T02:59:46;6.00;78.20
40638;DHT22;26336;44.696;10.622;2023-04-06T03:02:55;6.00;78.90
40638;DHT22;26336;44.696;10.622;2023-04-06T03:05:59;6.00;79.00
40638;DHT22;26336;44.696;10.622;2023-04-06T03:09:08;5.90;78.80
40638;DHT22;26336;44.696;10.622;2023-04-06T03:12:12;5.80;78.40
40638;DHT22;26336;44.696;10.622;2023-04-06T03:15:36;5.80;77.70
40638;DHT22;26336;44.696;10.622;2023-04-06T03:18:49;5.80;78.80
40638;DHT22;26336;44.696;10.622;2023-04-06T03:21:53;5.70;78.50
40638;DHT22;26336;44.696;10.622;2023-04-06T03:24:59;5.70;78.30
40638;DHT22;26336;44.696;10.622;2023-04-06T03:28:03;5.60;77.60
40638;DHT22;26336;44.696;10.622;2023-04-06T03:31:09;5.60;78.30
40638;DHT22;26336;44.696;10.622;2023-04-06T03:34:22;5.60;78.30
40638;DHT22;26336;44.696;10.622;2023-04-06T03:37:26;5.50;78.40
40638;DHT22;26336;44.696;10.622;2023-04-06T03:40:35;5.50;78.30
40638;DHT22;26336;44.696;10.622;2023-04-06T03:43:40;5.50;78.90
40638;DHT22;26336;44.696;10.622;2023-04-06T03:46:44;5.50;78.40
40638;DHT22;26336;44.696;10.622;2023-04-06T03:49:48;5.50;77.90
40638;DHT22;26336;44.696;10.622;2023-04-06T03:52:53;5.50;78.10
40638;DHT22;26336;44.696;10.622;2023-04-06T03:55:57;5.50;77.70
40638;DHT22;26336;44.696;10.622;2023-04-06T03:59:01;5.50;78.00
40638;DHT22;26336;44.696;10.622;2023-04-06T04:02:06;5.30;77.90
40638;DHT22;26336;44.696;10.622;2023-04-06T04:05:10;5.30;78.10
40638;DHT22;26336;44.696;10.622;2023-04-06T04:08:14;5.10;78.20
40638;DHT22;26336;44.696;10.622;2023-04-06T04:11:18;5.10;78.70
40638;DHT22;26336;44.696;10.622;2023-04-06T04:14:26;4.90;78.90
40638;DHT22;26336;44.696;10.622;2023-04-06T04:17:30;5.00;79.50
40638;DHT22;26336;44.696;10.622;2023-04-06T04:20:34;5.00;79.70
40638;DHT22;26336;44.696;10.622;2023-04-06T04:23:38;5.00;79.20
40638;DHT22;26336;44.696;10.622;2023-04-06T04:26:43;4.90;79.60
40638;DHT22;26336;44.696;10.622;2023-04-06T04:29:48;4.70;80.30
40638;DHT22;26336;44.696;10.622;2023-04-06T04:32:54;4.60;79.50
40638;DHT22;26336;44.696;10.622;2023-04-06T04:36:00;4.60;80.90
40638;DHT22;26336;44.696;10.622;2023-04-06T04:39:08;4.80;80.80
40638;DHT22;26336;44.696;10.622;2023-04-06T04:42:17;4.80;81.00
40638;DHT22;26336;44.696;10.622;2023-04-06T04:45:26;4.80;81.90
40638;DHT22;26336;44.696;10.622;2023-04-06T04:48:30;4.90;82.00
40638;DHT22;26336;44.696;10.622;2023-04-06T04:51:38;4.90;81.50
40638;DHT22;26336;44.696;10.622;2023-04-06T04:55:08;4.90;80.70
40638;DHT22;26336;44.696;10.622;2023-04-06T04:58:12;4.90;81.00
40638;DHT22;26336;44.696;10.622;2023-04-06T05:01:31;4.90;80.80
40638;DHT22;26336;44.696;10.622;2023-04-06T05:04:37;4.90;81.10
40638;DHT22;26336;44.696;10.622;2023-04-06T05:07:43;4.90;80.30
40638;DHT22;26336;44.696;10.622;2023-04-06T05:10:54;5.00;79.50
40638;DHT22;26336;44.696;10.622;2023-04-06T05:13:59;5.00;80.30
40638;DHT22;26336;44.696;10.622;2023-04-06T05:17:03;5.10;79.20
40638;DHT22;26336;44.696;10.622;2023-04-06T05:20:07;5.10;78.50
40638;DHT22;26336;44.696;10.622;2023-04-06T05:23:19;5.20;79.60
40638;DHT22;26336;44.696;10.622;2023-04-06T05:26:23;5.20;79.50
40638;DHT22;26336;44.696;10.622;2023-04-06T05:29:31;5.20;79.10
40638;DHT22;26336;44.696;10.622;2023-04-06T05:32:35;5.30;79.10
40638;DHT22;26336;44.696;10.622;2023-04-06T05:35:39;5.20;79.20
40638;DHT22;26336;44.696;10.622;2023-04-06T05:38:48;5.30;78.50
40638;DHT22;26336;44.696;10.622;2023-04-06T05:42:08;5.30;78.50
40638;DHT22;26336;44.696;10.622;2023-04-06T05:45:25;5.30;79.20
40638;DHT22;26336;44.696;10.622;2023-04-06T05:48:33;5.30;79.30
40638;DHT22;26336;44.696;10.622;2023-04-06T05:51:37;5.30;80.10
40638;DHT22;26336;44.696;10.622;2023-04-06T05:54:41;5.40;80.00
40638;DHT22;26336;44.696;10.622;2023-04-06T05:57:45;5.40;80.00
40638;DHT22;26336;44.696;10.622;2023-04-06T06:01:01;5.40;80.00
40638;DHT22;26336;44.696;10.622;2023-04-06T06:04:14;5.40;79.60
40638;DHT22;26336;44.696;10.622;2023-04-06T06:07:18;5.40;79.80
40638;DHT22;26336;44.696;10.622;2023-04-06T06:10:33;5.40;79.10
40638;DHT22;26336;44.696;10.622;2023-04-06T06:13:37;5.40;79.40
40638;DHT22;26336;44.696;10.622;2023-04-06T06:16:40;5.40;79.00
40638;DHT22;26336;44.696;10.622;2023-04-06T06:19:46;5.50;79.60
40638;DHT22;26336;44.696;10.622;2023-04-06T06:22:50;5.50;80.00
40638;DHT22;26336;44.696;10.622;2023-04-06T06:25:57;5.50;79.60
40638;DHT22;26336;44.696;10.622;2023-04-06T06:29:03;5.60;80.10
40638;DHT22;26336;44.696;10.622;2023-04-06T06:32:09;5.60;79.80
40638;DHT22;26336;44.696;10.622;2023-04-06T06:35:15;5.70;79.50
40638;DHT22;26336;44.696;10.622;2023-04-06T06:38:19;5.80;79.40
40638;DHT22;26336;44.696;10.622;2023-04-06T06:41:23;5.90;79.40
40638;DHT22;26336;44.696;10.622;2023-04-06T06:44:27;5.90;79.40
40638;DHT22;26336;44.696;10.622;2023-04-06T06:47:31;6.00;79.60
40638;DHT22;26336;44.696;10.622;2023-04-06T06:50:36;6.10;79.60
40638;DHT22;26336;44.696;10.622;2023-04-06T06:53:39;6.20;79.90
40638;DHT22;26336;44.696;10.622;2023-04-06T06:56:43;6.20;80.20
40638;DHT22;26336;44.696;10.622;2023-04-06T06:59:49;6.30;80.30
40638;DHT22;26336;44.696;10.622;2023-04-06T07:02:56;6.40;79.20
40638;DHT22;26336;44.696;10.622;2023-04-06T07:06:00;6.50;77.20
40638;DHT22;26336;44.696;10.622;2023-04-06T07:09:04;6.50;75.80
40638;DHT22;26336;44.696;10.622;2023-04-06T07:12:08;6.60;74.70
40638;DHT22;26336;44.696;10.622;2023-04-06T07:15:12;6.60;74.70
40638;DHT22;26336;44.696;10.622;2023-04-06T07:18:16;6.70;75.10
40638;DHT22;26336;44.696;10.622;2023-04-06T07:21:20;6.80;76.40
40638;DHT22;26336;44.696;10.622;2023-04-06T07:24:27;6.80;76.90
40638;DHT22;26336;44.696;10.622;2023-04-06T07:27:31;6.90;77.20
40638;DHT22;26336;44.696;10.622;2023-04-06T07:30:36;7.10;76.50
40638;DHT22;26336;44.696;10.622;2023-04-06T07:33:40;7.20;75.80
40638;DHT22;26336;44.696;10.622;2023-04-06T07:36:45;7.20;73.40
40638;DHT22;26336;44.696;10.622;2023-04-06T07:39:49;7.10;74.00
40638;DHT22;26336;44.696;10.622;2023-04-06T07:42:53;7.10;74.80
40638;DHT22;26336;44.696;10.622;2023-04-06T07:45:57;7.20;75.40
40638;DHT22;26336;44.696;10.622;2023-04-06T07:49:03;7.30;74.00
40638;DHT22;26336;44.696;10.622;2023-04-06T07:52:10;7.30;74.10
40638;DHT22;26336;44.696;10.622;2023-04-06T07:55:14;7.40;74.90
40638;DHT22;26336;44.696;10.622;2023-04-06T07:58:18;7.50;73.60
40638;DHT22;26336;44.696;10.622;2023-04-06T08:01:25;7.60;72.20
40638;DHT22;26336;44.696;10.622;2023-04-06T08:04:29;7.70;72.20
40638;DHT22;26336;44.696;10.622;2023-04-06T08:07:33;7.80;72.30
40638;DHT22;26336;44.696;10.622;2023-04-06T08:10:37;7.90;73.40
40638;DHT22;26336;44.696;10.622;2023-04-06T08:13:41;8.00;73.20
40638;DHT22;26336;44.696;10.622;2023-04-06T08:16:45;8.00;74.90
40638;DHT22;26336;44.696;10.622;2023-04-06T08:19:49;8.20;75.40
40638;DHT22;26336;44.696;10.622;2023-04-06T08:22:53;8.30;74.60
40638;DHT22;26336;44.696;10.622;2023-04-06T08:25:57;8.40;74.70
40638;DHT22;26336;44.696;10.622;2023-04-06T08:29:02;8.60;71.40
40638;DHT22;26336;44.696;10.622;2023-04-06T08:32:07;8.60;72.20
40638;DHT22;26336;44.696;10.622;2023-04-06T08:35:11;8.70;72.90
40638;DHT22;26336;44.696;10.622;2023-04-06T08:38:15;8.80;73.20
40638;DHT22;26336;44.696;10.622;2023-04-06T08:41:20;9.10;72.50
40638;DHT22;26336;44.696;10.622;2023-04-06T08:44:24;9.30;70.70
40638;DHT22;26336;44.696;10.622;2023-04-06T08:47:28;9.40;72.70
40638;DHT22;26336;44.696;10.622;2023-04-06T08:50:32;9.50;71.20
40638;DHT22;26336;44.696;10.622;2023-04-06T08:53:37;9.50;70.50
40638;DHT22;26336;44.696;10.622;2023-04-06T08:56:40;9.70;72.50
40638;DHT22;26336;44.696;10.622;2023-04-06T08:59:45;9.70;70.60
40638;DHT22;26336;44.696;10.622;2023-04-06T09:02:49;9.90;68.20
40638;DHT22;26336;44.696;10.622;2023-04-06T09:05:52;9.90;69.10
40638;DHT22;26336;44.696;10.622;2023-04-06T09:08:57;9.90;65.30
40638;DHT22;26336;44.696;10.622;2023-04-06T09:12:01;10.00;66.30
40638;DHT22;26336;44.696;10.622;2023-04-06T09:15:17;10.20;66.50
40638;DHT22;26336;44.696;10.622;2023-04-06T09:18:31;10.30;66.00
40638;DHT22;26336;44.696;10.622;2023-04-06T09:21:35;10.40;65.90
40638;DHT22;26336;44.696;10.622;2023-04-06T09:24:47;10.70;65.90
40638;DHT22;26336;44.696;10.622;2023-04-06T09:27:58;10.80;64.30
40638;DHT22;26336;44.696;10.622;2023-04-06T09:31:03;10.80;63.20
40638;DHT22;26336;44.696;10.622;2023-04-06T09:38:27;11.10;64.10
40638;DHT22;26336;44.696;10.622;2023-04-06T09:41:31;11.30;63.80
40638;DHT22;26336;44.696;10.622;2023-04-06T09:44:36;11.40;63.90
40638;DHT22;26336;44.696;10.622;2023-04-06T09:47:42;11.60;63.20
40638;DHT22;26336;44.696;10.622;2023-04-06T09:50:47;11.60;65.00
40638;DHT22;26336;44.696;10.622;2023-04-06T09:53:52;11.70;63.60
40638;DHT22;26336;44.696;10.622;2023-04-06T10:00:05;11.70;61.20
40638;DHT22;26336;44.696;10.622;2023-04-06T10:06:36;11.70;62.50
40638;DHT22;26336;44.696;10.622;2023-04-06T10:09:40;11.80;59.60
40638;DHT22;26336;44.696;10.622;2023-04-06T10:12:45;11.80;61.20
40638;DHT22;26336;44.696;10.622;2023-04-06T10:15:50;11.80;61.20
40638;DHT22;26336;44.696;10.622;2023-04-06T10:19:00;11.80;60.10
40638;DHT22;26336;44.696;10.622;2023-04-06T10:22:05;11.90;61.80
40638;DHT22;26336;44.696;10.622;2023-04-06T10:25:10;12.00;61.60
40638;DHT22;26336;44.696;10.622;2023-04-06T10:28:14;12.20;61.20
40638;DHT22;26336;44.696;10.622;2023-04-06T10:31:26;12.30;62.30
40638;DHT22;26336;44.696;10.622;2023-04-06T10:34:34;12.40;61.70
40638;DHT22;26336;44.696;10.622;2023-04-06T10:40:52;12.40;59.90
40638;DHT22;26336;44.696;10.622;2023-04-06T10:43:56;12.50;61.00
40638;DHT22;26336;44.696;10.622;2023-04-06T10:47:00;12.50;61.00
40638;DHT22;26336;44.696;10.622;2023-04-06T10:50:04;12.60;62.10
40638;DHT22;26336;44.696;10.622;2023-04-06T10:53:08;12.70;61.40
40638;DHT22;26336;44.696;10.622;2023-04-06T10:56:13;12.80;61.10
40638;DHT22;26336;44.696;10.622;2023-04-06T10:59:20;12.80;62.10
40638;DHT22;26336;44.696;10.622;2023-04-06T11:02:24;13.00;61.40
40638;DHT22;26336;44.696;10.622;2023-04-06T11:05:29;13.10;62.30
40638;DHT22;26336;44.696;10.622;2023-04-06T11:08:33;13.20;60.10
40638;DHT22;26336;44.696;10.622;2023-04-06T11:11:38;13.10;59.40
40638;DHT22;26336;44.696;10.622;2023-04-06T11:14:52;13.00;58.80
40638;DHT22;26336;44.696;10.622;2023-04-06T11:17:55;13.10;59.60
40638;DHT22;26336;44.696;10.622;2023-04-06T11:20:59;13.20;59.70
40638;DHT22;26336;44.696;10.622;2023-04-06T11:24:24;13.30;59.10
40638;DHT22;26336;44.696;10.622;2023-04-06T11:27:27;13.30;58.20
40638;DHT22;26336;44.696;10.622;2023-04-06T11:30:35;13.40;59.70
40638;DHT22;26336;44.696;10.622;2023-04-06T11:33:39;13.50;59.50
40638;DHT22;26336;44.696;10.622;2023-04-06T11:36:43;13.50;57.70
40638;DHT22;26336;44.696;10.622;2023-04-06T11:39:49;13.50;59.20
40638;DHT22;26336;44.696;10.622;2023-04-06T11:42:54;13.60;60.60
40638;DHT22;26336;44.696;10.622;2023-04-06T11:46:02;13.60;57.70
40638;DHT22;26336;44.696;10.622;2023-04-06T11:49:06;13.60;58.00
40638;DHT22;26336;44.696;10.622;2023-04-06T11:52:22;13.70;58.20
40638;DHT22;26336;44.696;10.622;2023-04-06T11:55:28;13.70;57.00
40638;DHT22;26336;44.696;10.622;2023-04-06T11:58:32;13.70;57.70
40638;DHT22;26336;44.696;10.622;2023-04-06T12:01:44;13.70;57.40
40638;DHT22;26336;44.696;10.622;2023-04-06T12:04:48;13.70;58.00
40638;DHT22;26336;44.696;10.622;2023-04-06T12:07:52;13.60;58.10
40638;DHT22;26336;44.696;10.622;2023-04-06T12:10:57;13.70;58.90
40638;DHT22;26336;44.696;10.622;2023-04-06T12:14:01;13.80;58.10
40638;DHT22;26336;44.696;10.622;2023-04-06T12:17:08;13.90;57.90
40638;DHT22;26336;44.696;10.622;2023-04-06T12:20:12;13.90;58.30
40638;DHT22;26336;44.696;10.622;2023-04-06T12:23:17;14.00;58.20
40638;DHT22;26336;44.696;10.622;2023-04-06T12:26:21;14.00;60.80
40638;DHT22;26336;44.696;10.622;2023-04-06T12:29:25;14.10;59.50
40638;DHT22;26336;44.696;10.622;2023-04-06T12:32:29;14.20;58.90
40638;DHT22;26336;44.696;10.622;2023-04-06T12:35:33;14.20;57.70
40638;DHT22;26336;44.696;10.622;2023-04-06T12:38:37;14.20;57.20
40638;DHT22;26336;44.696;10.622;2023-04-06T12:41:43;14.20;57.40
40638;DHT22;26336;44.696;10.622;2023-04-06T12:44:47;14.20;57.10
40638;DHT22;26336;44.696;10.622;2023-04-06T12:47:51;14.20;57.70
40638;DHT22;26336;44.696;10.622;2023-04-06T12:50:59;14.30;57.20
40638;DHT22;26336;44.696;10.622;2023-04-06T12:54:03;14.30;57.40
40638;DHT22;26336;44.696;10.622;2023-04-06T12:57:07;14.30;57.40
40638;DHT22;26336;44.696;10.622;2023-04-06T13:00:11;14.30;57.40
40638;DHT22;26336;44.696;10.622;2023-04-06T13:03:16;14.30;55.40
40638;DHT22;26336;44.696;10.622;2023-04-06T13:06:20;14.30;55.90
40638;DHT22;26336;44.696;10.622;2023-04-06T13:09:24;14.30;56.60
40638;DHT22;26336;44.696;10.622;2023-04-06T13:12:28;14.40;56.10
40638;DHT22;26336;44.696;10.622;2023-04-06T13:15:32;14.40;58.40
40638;DHT22;26336;44.696;10.622;2023-04-06T13:18:38;14.40;56.30
40638;DHT22;26336;44.696;10.622;2023-04-06T13:21:42;14.30;56.70
40638;DHT22;26336;44.696;10.622;2023-04-06T13:24:46;14.40;57.30
40638;DHT22;26336;44.696;10.622;2023-04-06T13:27:50;14.40;58.20
40638;DHT22;26336;44.696;10.622;2023-04-06T13:30:55;14.50;56.90
40638;DHT22;26336;44.696;10.622;2023-04-06T13:33:58;14.50;57.30
40638;DHT22;26336;44.696;10.622;2023-04-06T13:37:02;14.50;57.00
40638;DHT22;26336;44.696;10.622;2023-04-06T13:40:06;14.50;56.60
40638;DHT22;26336;44.696;10.622;2023-04-06T13:43:11;14.50;57.00
40638;DHT22;26336;44.696;10.622;2023-04-06T13:46:15;14.50;57.00
40638;DHT22;26336;44.696;10.622;2023-04-06T13:49:19;14.50;57.20
40638;DHT22;26336;44.696;10.622;2023-04-06T13:52:23;14.50;57.20
40638;DHT22;26336;44.696;10.622;2023-04-06T13:55:27;14.60;57.70
40638;DHT22;26336;44.696;10.622;2023-04-06T13:58:31;14.50;57.10
40638;DHT22;26336;44.696;10.622;2023-04-06T14:01:35;14.50;58.40
40638;DHT22;26336;44.696;10.622;2023-04-06T14:04:40;14.50;57.40
40638;DHT22;26336;44.696;10.622;2023-04-06T14:07:44;14.60;56.70
40638;DHT22;26336;44.696;10.622;2023-04-06T14:10:48;14.50;56.10
40638;DHT22;26336;44.696;10.622;2023-04-06T14:13:51;14.50;56.50
40638;DHT22;26336;44.696;10.622;2023-04-06T14:16:55;14.50;57.80
40638;DHT22;26336;44.696;10.622;2023-04-06T14:19:59;14.50;57.60
40638;DHT22;26336;44.696;10.622;2023-04-06T14:23:03;14.40;58.00
40638;DHT22;26336;44.696;10.622;2023-04-06T14:26:07;14.50;57.70
40638;DHT22;26336;44.696;10.622;2023-04-06T14:29:14;14.50;57.50
40638;DHT22;26336;44.696;10.622;2023-04-06T14:32:19;14.50;57.70
40638;DHT22;26336;44.696;10.622;2023-04-06T14:35:24;14.50;57.20
40638;DHT22;26336;44.696;10.622;2023-04-06T14:38:28;14.50;56.50
40638;DHT22;26336;44.696;10.622;2023-04-06T14:41:32;14.60;56.80
40638;DHT22;26336;44.696;10.622;2023-04-06T14:44:36;14.50;56.80
40638;DHT22;26336;44.696;10.622;2023-04-06T14:47:41;14.50;58.10
40638;DHT22;26336;44.696;10.622;2023-04-06T14:50:52;14.60;58.40
40638;DHT22;26336;44.696;10.622;2023-04-06T14:53:57;14.60;58.10
40638;DHT22;26336;44.696;10.622;2023-04-06T14:57:00;14.60;57.80
40638;DHT22;26336;44.696;10.622;2023-04-06T15:00:05;14.60;57.90
40638;DHT22;26336;44.696;10.622;2023-04-06T15:03:11;14.70;58.40
40638;DHT22;26336;44.696;10.622;2023-04-06T15:06:17;14.70;59.20
40638;DHT22;26336;44.696;10.622;2023-04-06T15:09:22;14.70;58.70
40638;DHT22;26336;44.696;10.622;2023-04-06T15:12:25;14.70;57.60
40638;DHT22;26336;44.696;10.622;2023-04-06T15:15:29;14.60;57.30
40638;DHT22;26336;44.696;10.622;2023-04-06T15:18:33;14.60;57.90
40638;DHT22;26336;44.696;10.622;2023-04-06T15:21:37;14.50;59.40
40638;DHT22;26336;44.696;10.622;2023-04-06T15:24:41;14.50;58.80
40638;DHT22;26336;44.696;10.622;2023-04-06T15:27:45;14.60;58.10
40638;DHT22;26336;44.696;10.622;2023-04-06T15:30:49;14.60;57.20
40638;DHT22;26336;44.696;10.622;2023-04-06T15:33:53;14.60;56.30
40638;DHT22;26336;44.696;10.622;2023-04-06T15:37:00;14.70;57.90
40638;DHT22;26336;44.696;10.622;2023-04-06T15:40:05;14.70;56.80
40638;DHT22;26336;44.696;10.622;2023-04-06T15:43:09;14.70;57.50
40638;DHT22;26336;44.696;10.622;2023-04-06T15:46:13;14.70;56.70
40638;DHT22;26336;44.696;10.622;2023-04-06T15:49:17;14.70;56.90
40638;DHT22;26336;44.696;10.622;2023-04-06T15:52:24;14.60;57.50
40638;DHT22;26336;44.696;10.622;2023-04-06T15:55:28;14.70;57.50
40638;DHT22;26336;44.696;10.622;2023-04-06T15:58:32;14.70;56.90
40638;DHT22;26336;44.696;10.622;2023-04-06T16:01:36;14.60;57.20
40638;DHT22;26336;44.696;10.622;2023-04-06T16:04:40;14.60;57.00
40638;DHT22;26336;44.696;10.622;2023-04-06T16:07:44;14.60;57.40
40638;DHT22;26336;44.696;10.622;2023-04-06T16:10:48;14.60;56.70
40638;DHT22;26336;44.696;10.622;2023-04-06T16:13:55;14.60;57.50
40638;DHT22;26336;44.696;10.622;2023-04-06T16:17:00;14.60;56.70
40638;DHT22;26336;44.696;10.622;2023-04-06T16:20:04;14.50;57.30
40638;DHT22;26336;44.696;10.622;2023-04-06T16:23:11;14.50;58.50
40638;DHT22;26336;44.696;10.622;2023-04-06T16:26:15;14.40;57.70
40638;DHT22;26336;44.696;10.622;2023-04-06T16:29:20;14.40;57.80
40638;DHT22;26336;44.696;10.622;2023-04-06T16:32:24;14.30;58.20
40638;DHT22;26336;44.696;10.622;2023-04-06T16:35:28;14.30;58.60
40638;DHT22;26336;44.696;10.622;2023-04-06T16:38:32;14.40;57.50
40638;DHT22;26336;44.696;10.622;2023-04-06T16:41:39;14.40;57.10
40638;DHT22;26336;44.696;10.622;2023-04-06T16:44:43;14.40;57.70
40638;DHT22;26336;44.696;10.622;2023-04-06T16:47:47;14.30;57.40
40638;DHT22;26336;44.696;10.622;2023-04-06T16:50:53;14.30;57.90
40638;DHT22;26336;44.696;10.622;2023-04-06T16:53:57;14.20;58.40
40638;DHT22;26336;44.696;10.622;2023-04-06T16:57:01;14.20;58.90
40638;DHT22;26336;44.696;10.622;2023-04-06T17:00:07;14.10;59.00
40638;DHT22;26336;44.696;10.622;2023-04-06T17:03:12;14.10;59.10
40638;DHT22;26336;44.696;10.622;2023-04-06T17:06:19;14.10;59.60
40638;DHT22;26336;44.696;10.622;2023-04-06T17:09:23;14.10;59.00
40638;DHT22;26336;44.696;10.622;2023-04-06T17:12:27;14.10;59.20
40638;DHT22;26336;44.696;10.622;2023-04-06T17:15:31;14.10;58.80
40638;DHT22;26336;44.696;10.622;2023-04-06T17:18:35;14.10;59.10
40638;DHT22;26336;44.696;10.622;2023-04-06T17:21:39;14.10;60.40
40638;DHT22;26336;44.696;10.622;2023-04-06T17:24:44;14.00;60.70
40638;DHT22;26336;44.696;10.622;2023-04-06T17:27:49;13.80;61.20
40638;DHT22;26336;44.696;10.622;2023-04-06T17:30:54;13.80;60.70
40638;DHT22;26336;44.696;10.622;2023-04-06T17:33:58;13.70;60.90
40638;DHT22;26336;44.696;10.622;2023-04-06T17:37:02;13.70;61.20
40638;DHT22;26336;44.696;10.622;2023-04-06T17:40:07;13.60;62.00
40638;DHT22;26336;44.696;10.622;2023-04-06T17:43:10;13.50;61.80
40638;DHT22;26336;44.696;10.622;2023-04-06T17:46:14;13.40;62.00
40638;DHT22;26336;44.696;10.622;2023-04-06T17:49:18;13.40;62.20
40638;DHT22;26336;44.696;10.622;2023-04-06T17:52:23;13.40;62.70
40638;DHT22;26336;44.696;10.622;2023-04-06T17:55:27;13.30;63.20
40638;DHT22;26336;44.696;10.622;2023-04-06T17:58:31;13.20;63.60
40638;DHT22;26336;44.696;10.622;2023-04-06T18:01:36;13.20;64.20
40638;DHT22;26336;44.696;10.622;2023-04-06T18:04:40;13.10;64.30
40638;DHT22;26336;44.696;10.622;2023-04-06T18:07:46;13.10;65.30
40638;DHT22;26336;44.696;10.622;2023-04-06T18:10:50;13.00;65.60
40638;DHT22;26336;44.696;10.622;2023-04-06T18:13:55;12.90;65.40
40638;DHT22;26336;44.696;10.622;2023-04-06T18:16:59;12.90;65.80
40638;DHT22;26336;44.696;10.622;2023-04-06T18:20:03;12.80;66.30
40638;DHT22;26336;44.696;10.622;2023-04-06T18:23:07;12.80;66.40
40638;DHT22;26336;44.696;10.622;2023-04-06T18:26:15;12.70;67.10
40638;DHT22;26336;44.696;10.622;2023-04-06T18:29:20;12.70;67.10
40638;DHT22;26336;44.696;10.622;2023-04-06T18:32:24;12.70;67.30
40638;DHT22;26336;44.696;10.622;2023-04-06T18:35:32;12.70;67.80
40638;DHT22;26336;44.696;10.622;2023-04-06T18:38:41;12.80;68.00
40638;DHT22;26336;44.696;10.622;2023-04-06T18:41:45;12.80;67.40
40638;DHT22;26336;44.696;10.622;2023-04-06T18:44:49;12.80;67.80
40638;DHT22;26336;44.696;10.622;2023-04-06T18:47:54;12.80;68.60
40638;DHT22;26336;44.696;10.622;2023-04-06T18:50:58;12.80;68.80
40638;DHT22;26336;44.696;10.622;2023-04-06T18:54:04;12.70;69.10
40638;DHT22;26336;44.696;10.622;2023-04-06T18:57:09;12.60;69.10
40638;DHT22;26336;44.696;10.622;2023-04-06T19:00:13;12.50;69.40
40638;DHT22;26336;44.696;10.622;2023-04-06T19:03:18;12.30;69.80
40638;DHT22;26336;44.696;10.622;2023-04-06T19:06:22;12.40;70.70
40638;DHT22;26336;44.696;10.622;2023-04-06T19:09:25;12.40;71.10
40638;DHT22;26336;44.696;10.622;2023-04-06T19:12:29;12.40;70.80
40638;DHT22;26336;44.696;10.622;2023-04-06T19:15:34;12.50;71.00
40638;DHT22;26336;44.696;10.622;2023-04-06T19:18:38;12.40;70.50
40638;DHT22;26336;44.696;10.622;2023-04-06T19:21:45;12.30;70.00
40638;DHT22;26336;44.696;10.622;2023-04-06T19:24:49;12.10;70.50
40638;DHT22;26336;44.696;10.622;2023-04-06T19:27:53;12.10;71.40
40638;DHT22;26336;44.696;10.622;2023-04-06T19:30:57;12.10;72.10
40638;DHT22;26336;44.696;10.622;2023-04-06T19:34:02;12.10;72.50
40638;DHT22;26336;44.696;10.622;2023-04-06T19:37:07;12.10;72.70